Ana Sayfa
METAR-TAF:

METAR-TAF

Havaalanları :

Cortez, Colorado, Amerika Birleşik Devletleri

Enlem: 37-18-23N, Boylam: 108-37-32W, yükseklik: 1803 m

Güncel hava durumu gözlemi

Rapor saat 05:53 UTC de 46 dakika önce yapıldı.
Sakin rüzgar
Sıcaklık 7°C
Nem 87%
Basınç 1010 hPa
Görüş mesafesi: 16.1 km
7000 ft yükseklikte parçalı bulutlu
9000 ft yükseklikte çok bulutlu

METAR: KCEZ 230553Z AUTO 00000KT 10SM SCT070 OVC090 07/05 A2983 RMK AO2 SLP067 60004 T00720050 10106 20067 50000

Saat: 00:39 (06:39 UTC)


TAF: eksik

4.000'den fazla havaalanı için hava durumu gözlemleri ve tahminleri (METAR ve TAF raporları).

Kullanılabilir istasyonlar harita üzerinde sarı ve kırmızı noktalarla gösterilir.

İstasyonun adını görmek için fareyi noktanın üzerinde gezdirin.

Sonrasında hava gözlem ve tahminlerini görmek için tıklayın.

Haritayı değiştirmek için: yaklaştırmak için siyah artı işaretli yeşil düğmeye ve uzaklaştırmak için de eksi işaretli düğmeye hızla tıklayın; bitişik haritalar için yeşil okları kullanın.


METAR-TAF: